createdAt,value
2023-02-16T00:01:26.060Z,100935.22
2023-02-16T00:03:57.501Z,100929.94
2023-02-16T00:06:29.799Z,100927.34
2023-02-16T00:08:59.459Z,100926.53
2023-02-16T00:11:52.942Z,100916.84
2023-02-16T00:14:26.246Z,100924.63
2023-02-16T00:17:00.334Z,100918.44
2023-02-16T00:19:43.080Z,100928.25
2023-02-16T00:22:12.862Z,100932.91
2023-02-16T00:24:43.372Z,100925.91
2023-02-16T00:27:18.847Z,100935.59
2023-02-16T00:29:48.515Z,100932.91
2023-02-16T00:32:18.278Z,100932.81
2023-02-16T00:34:48.023Z,100930.19
2023-02-16T00:37:17.665Z,100921.22
2023-02-16T00:39:47.435Z,100926.44
2023-02-16T00:42:24.369Z,100917.59
2023-02-16T00:44:58.017Z,100911.44
2023-02-16T00:47:41.802Z,100919.34
2023-02-16T00:50:20.480Z,100913.22
2023-02-16T00:52:50.750Z,100914.41
2023-02-16T00:55:25.345Z,100899.59
2023-02-16T00:58:24.388Z,100897.81
2023-02-16T01:01:12.395Z,100901.47
2023-02-16T01:03:42.838Z,100904.03
2023-02-16T01:06:31.219Z,100900.25
2023-02-16T01:09:40.542Z,100896.00
2023-02-16T01:12:17.987Z,100899.59
2023-02-16T01:14:54.791Z,100896.63
2023-02-16T01:17:25.784Z,100890.38
2023-02-16T01:19:55.878Z,100883.13
2023-02-16T01:22:25.518Z,100877.47
2023-02-16T01:24:55.164Z,100872.63
2023-02-16T01:27:24.889Z,100879.59
2023-02-16T01:29:54.538Z,100882.19
2023-02-16T01:32:24.258Z,100881.41
2023-02-16T01:34:54.026Z,100883.19
2023-02-16T01:37:23.912Z,100878.13
2023-02-16T01:39:53.554Z,100870.78
2023-02-16T01:42:52.109Z,100875.94
2023-02-16T01:45:35.308Z,100867.22
2023-02-16T01:48:14.392Z,100864.47
2023-02-16T01:51:08.444Z,100861.91
2023-02-16T01:53:54.903Z,100859.84
2023-02-16T01:57:00.172Z,100861.00
2023-02-16T01:59:44.993Z,100856.91
2023-02-16T02:02:24.772Z,100855.03
2023-02-16T02:05:19.868Z,100844.94
2023-02-16T02:08:02.161Z,100847.56
2023-02-16T02:11:11.929Z,100851.59
2023-02-16T02:14:02.039Z,100843.72
2023-02-16T02:16:31.788Z,100830.31
2023-02-16T02:19:01.542Z,100829.50
2023-02-16T02:22:43.942Z,100819.66
2023-02-16T02:25:55.835Z,100830.41
2023-02-16T02:29:27.258Z,100828.63
2023-02-16T02:32:19.014Z,100823.63
2023-02-16T02:35:27.408Z,100819.72
2023-02-16T02:38:13.264Z,100835.34
2023-02-16T02:41:14.384Z,100826.69
2023-02-16T02:43:58.440Z,100831.03
2023-02-16T02:46:35.400Z,100825.00
2023-02-16T02:49:05.376Z,100822.44
2023-02-16T02:51:40.348Z,100818.94
2023-02-16T02:54:53.249Z,100816.44
2023-02-16T02:57:53.705Z,100820.91
2023-02-16T03:00:47.445Z,100828.00
2023-02-16T03:03:34.277Z,100828.66
2023-02-16T03:06:09.584Z,100823.47
2023-02-16T03:08:45.192Z,100828.66
2023-02-16T03:11:48.217Z,100826.03
2023-02-16T03:14:36.841Z,100828.47
2023-02-16T03:17:37.321Z,100825.16
2023-02-16T03:20:32.224Z,100818.75
2023-02-16T03:23:23.198Z,100816.13
2023-02-16T03:26:12.564Z,100818.16
2023-02-16T03:29:03.633Z,100822.41
2023-02-16T03:31:38.793Z,100813.84
2023-02-16T03:34:09.280Z,100819.03
2023-02-16T03:36:42.867Z,100815.09
2023-02-16T03:39:13.480Z,100807.91
2023-02-16T03:41:53.876Z,100804.22
2023-02-16T03:44:25.093Z,100807.16
2023-02-16T03:46:53.872Z,100808.41
2023-02-16T03:49:23.467Z,100799.59
2023-02-16T03:51:53.023Z,100808.72
2023-02-16T03:54:22.621Z,100802.56
2023-02-16T03:56:52.212Z,100800.25
2023-02-16T03:59:21.838Z,100811.16
2023-02-16T04:01:51.517Z,100807.31
2023-02-16T04:04:21.185Z,100807.94
2023-02-16T04:06:50.839Z,100803.63
2023-02-16T04:09:20.649Z,100808.72
2023-02-16T04:12:08.016Z,100807.03
2023-02-16T04:14:37.586Z,100801.13
2023-02-16T04:17:06.208Z,100800.03
2023-02-16T04:19:35.809Z,100795.69
2023-02-16T04:22:05.469Z,100797.97
2023-02-16T04:24:35.074Z,100793.53
2023-02-16T04:27:05.218Z,100796.44
2023-02-16T04:29:34.913Z,100796.28
2023-02-16T04:32:05.831Z,100790.63
2023-02-16T04:34:35.514Z,100791.19
2023-02-16T04:37:05.948Z,100792.25
2023-02-16T04:39:36.187Z,100795.72
2023-02-16T04:42:05.938Z,100778.28
2023-02-16T04:44:35.699Z,100797.16
2023-02-16T04:47:04.723Z,100800.69
2023-02-16T04:49:34.355Z,100795.91
2023-02-16T04:52:05.161Z,100806.19
2023-02-16T04:54:35.293Z,100799.38
2023-02-16T04:57:05.470Z,100808.22
2023-02-16T04:59:35.377Z,100809.13
2023-02-16T05:02:05.562Z,100808.00
2023-02-16T05:04:35.613Z,100801.72
2023-02-16T05:07:06.117Z,100815.88
2023-02-16T05:09:35.849Z,100810.88
2023-02-16T05:12:24.426Z,100801.69
2023-02-16T05:14:54.173Z,100805.06
2023-02-16T05:17:26.832Z,100797.28
2023-02-16T05:20:00.492Z,100796.59
2023-02-16T05:22:34.649Z,100790.94
2023-02-16T05:25:05.555Z,100800.66
2023-02-16T05:27:35.634Z,100797.31
2023-02-16T05:30:07.450Z,100800.84
2023-02-16T05:32:37.101Z,100802.53
2023-02-16T05:35:07.175Z,100798.38
2023-02-16T05:37:36.857Z,100805.22
2023-02-16T05:40:07.799Z,100809.78
2023-02-16T05:42:37.511Z,100816.75
2023-02-16T05:45:07.834Z,100822.81
2023-02-16T05:47:37.562Z,100818.28
2023-02-16T05:50:08.070Z,100817.41
2023-02-16T05:52:35.873Z,100813.84
2023-02-16T05:55:06.211Z,100809.31
2023-02-16T05:57:35.853Z,100817.38
2023-02-16T06:00:06.737Z,100818.25
2023-02-16T06:02:36.435Z,100818.25
2023-02-16T06:05:06.698Z,100815.78
2023-02-16T06:07:36.445Z,100816.75
2023-02-16T06:10:06.936Z,100813.25
2023-02-16T06:12:36.669Z,100809.25
2023-02-16T06:15:06.632Z,100816.56
2023-02-16T06:17:36.302Z,100820.91
2023-02-16T06:20:07.252Z,100808.91
2023-02-16T06:22:36.996Z,100812.03
2023-02-16T06:25:07.144Z,100811.72
2023-02-16T06:27:37.644Z,100805.81
2023-02-16T06:30:09.077Z,100800.78
2023-02-16T06:32:39.054Z,100796.53
2023-02-16T06:35:10.149Z,100793.94
2023-02-16T06:37:39.852Z,100796.41
2023-02-16T06:40:14.284Z,100801.94
2023-02-16T06:42:44.681Z,100788.72
2023-02-16T06:45:15.364Z,100795.88
2023-02-16T06:47:46.054Z,100790.66
2023-02-16T06:50:15.816Z,100798.63
2023-02-16T06:52:45.513Z,100794.63
2023-02-16T06:55:15.273Z,100797.13
2023-02-16T06:57:45.035Z,100794.56
2023-02-16T07:00:16.321Z,100794.59
2023-02-16T07:02:46.876Z,100785.88
2023-02-16T07:05:16.895Z,100785.91
2023-02-16T07:07:46.610Z,100787.78
2023-02-16T07:10:17.382Z,100785.13
2023-02-16T07:12:48.264Z,100784.91
2023-02-16T07:15:19.025Z,100782.66
2023-02-16T07:17:49.552Z,100783.59
2023-02-16T07:20:19.467Z,100785.38
2023-02-16T07:22:49.943Z,100786.34
2023-02-16T07:25:19.713Z,100781.91
2023-02-16T07:27:49.539Z,100786.41
2023-02-16T07:30:19.564Z,100784.66
2023-02-16T07:32:50.150Z,100785.50
2023-02-16T07:35:22.297Z,100782.84
2023-02-16T07:37:51.975Z,100784.59
2023-02-16T07:40:21.676Z,100788.13
2023-02-16T07:42:51.443Z,100779.22
2023-02-16T07:45:21.316Z,100783.53
2023-02-16T07:47:51.910Z,100782.53
2023-02-16T07:50:22.458Z,100782.75
2023-02-16T07:52:52.377Z,100772.22
2023-02-16T07:55:22.161Z,100769.28
2023-02-16T07:57:55.518Z,100769.03
2023-02-16T08:00:25.410Z,100776.91
2023-02-16T08:02:56.068Z,100767.13
2023-02-16T08:05:26.084Z,100771.19
2023-02-16T08:07:56.048Z,100774.25
2023-02-16T08:10:26.584Z,100780.41
2023-02-16T08:12:56.240Z,100781.50
2023-02-16T08:15:27.296Z,100782.66
2023-02-16T08:17:55.134Z,100788.66
2023-02-16T08:20:45.122Z,100790.09
2023-02-16T08:23:12.835Z,100783.44
2023-02-16T08:25:44.251Z,100788.13
2023-02-16T08:28:15.043Z,100781.63
2023-02-16T08:30:43.041Z,100787.03
2023-02-16T08:33:13.702Z,100786.13
2023-02-16T08:35:44.042Z,100782.75
2023-02-16T08:38:14.598Z,100787.81
2023-02-16T08:40:50.114Z,100783.03
2023-02-16T08:43:18.114Z,100782.97
2023-02-16T08:45:49.408Z,100784.81
2023-02-16T08:48:17.952Z,100788.59
2023-02-16T08:50:55.100Z,100798.22
2023-02-16T08:53:24.667Z,100799.69
2023-02-16T08:56:00.588Z,100801.88
2023-02-16T08:58:29.032Z,100802.38
2023-02-16T09:00:59.580Z,100807.94
2023-02-16T09:03:29.315Z,100810.84
2023-02-16T09:06:05.078Z,100817.34
2023-02-16T09:08:38.920Z,100807.53
2023-02-16T09:11:14.679Z,100805.50
2023-02-16T09:13:44.802Z,100804.13
2023-02-16T09:16:23.802Z,100800.06
2023-02-16T09:18:53.241Z,100802.00
2023-02-16T09:21:25.686Z,100796.13
2023-02-16T09:23:57.889Z,100784.91
2023-02-16T09:26:29.374Z,100790.38
2023-02-16T09:28:59.277Z,100796.41
2023-02-16T09:31:33.902Z,100790.09
2023-02-16T09:34:20.026Z,100800.38
2023-02-16T09:36:50.666Z,100805.38
2023-02-16T09:39:23.184Z,100803.66
2023-02-16T09:42:19.429Z,100802.84
2023-02-16T09:45:17.610Z,100802.69
2023-02-16T09:47:50.837Z,100811.69
2023-02-16T09:50:50.686Z,100801.44
2023-02-16T09:53:40.475Z,100804.38
2023-02-16T09:56:42.249Z,100804.81
2023-02-16T09:59:53.412Z,100797.00
2023-02-16T10:02:52.803Z,100801.19
2023-02-16T10:05:55.145Z,100799.75
2023-02-16T10:08:39.004Z,100802.69
2023-02-16T10:11:40.754Z,100798.72
2023-02-16T10:15:07.716Z,100796.53
2023-02-16T10:18:08.342Z,100792.72
2023-02-16T10:20:47.390Z,100793.81
2023-02-16T10:23:58.725Z,100785.34
2023-02-16T10:26:42.014Z,100791.56
2023-02-16T10:29:22.666Z,100782.53
2023-02-16T10:32:30.703Z,100780.38
2023-02-16T10:35:17.495Z,100784.34
2023-02-16T10:38:47.347Z,100782.97
2023-02-16T10:41:40.851Z,100774.56
2023-02-16T10:44:37.498Z,100770.56
2023-02-16T10:47:33.694Z,100771.50
2023-02-16T10:50:05.423Z,100769.50
2023-02-16T10:52:40.446Z,100766.59
2023-02-16T10:55:12.881Z,100762.25
2023-02-16T10:57:43.128Z,100755.41
2023-02-16T11:00:23.164Z,100758.03
2023-02-16T11:02:53.268Z,100753.91
2023-02-16T11:05:36.954Z,100754.94
2023-02-16T11:08:12.789Z,100753.97
2023-02-16T11:10:51.065Z,100744.47
2023-02-16T11:13:37.393Z,100735.19
2023-02-16T11:16:21.539Z,100738.91
2023-02-16T11:19:13.313Z,100734.78
2023-02-16T11:21:56.099Z,100742.25
2023-02-16T11:24:33.387Z,100720.00
2023-02-16T11:27:13.921Z,100733.34
2023-02-16T11:29:42.648Z,100721.25
2023-02-16T11:32:15.761Z,100723.63
2023-02-16T11:34:51.409Z,100728.97
2023-02-16T11:37:32.086Z,100719.88
2023-02-16T11:40:21.675Z,100713.69
2023-02-16T11:43:03.025Z,100712.06
2023-02-16T11:45:36.189Z,100712.00
2023-02-16T11:48:14.116Z,100699.13
2023-02-16T11:51:03.107Z,100699.84
2023-02-16T11:54:03.323Z,100700.72
2023-02-16T11:56:35.921Z,100707.25
2023-02-16T11:59:20.878Z,100702.06
2023-02-16T12:02:39.533Z,100700.66
2023-02-16T12:05:32.630Z,100692.31
2023-02-16T12:08:54.596Z,100677.97
2023-02-16T12:12:18.457Z,100674.72
2023-02-16T12:15:15.296Z,100675.09
2023-02-16T12:18:40.713Z,100669.00
2023-02-16T12:21:38.003Z,100665.72
2023-02-16T12:25:04.061Z,100667.09
2023-02-16T12:27:49.871Z,100661.59
2023-02-16T12:31:22.576Z,100664.53
2023-02-16T12:35:00.329Z,100649.59
2023-02-16T12:38:03.617Z,100647.16
2023-02-16T12:41:23.802Z,100648.13
2023-02-16T12:44:02.234Z,100628.66
2023-02-16T12:46:53.596Z,100634.78
2023-02-16T12:50:01.197Z,100626.25
2023-02-16T12:52:40.516Z,100620.72
2023-02-16T12:55:25.652Z,100612.91
2023-02-16T12:58:53.545Z,100609.00
2023-02-16T13:01:31.647Z,100604.88
2023-02-16T13:04:33.910Z,100597.34
2023-02-16T13:07:32.728Z,100593.72
2023-02-16T13:10:25.208Z,100588.81
2023-02-16T13:13:18.438Z,100584.94
2023-02-16T13:16:30.470Z,100587.50
2023-02-16T13:18:59.496Z,100583.00
2023-02-16T13:21:53.694Z,100583.94
2023-02-16T13:25:09.118Z,100579.72
2023-02-16T13:27:55.639Z,100576.75
2023-02-16T13:31:15.839Z,100567.47
2023-02-16T13:34:12.825Z,100562.25
2023-02-16T13:36:51.284Z,100556.16
2023-02-16T13:40:01.322Z,100556.09
2023-02-16T13:43:36.717Z,100551.25
2023-02-16T13:46:50.182Z,100545.88
2023-02-16T13:49:45.006Z,100544.88
2023-02-16T13:52:39.452Z,100544.00
2023-02-16T13:55:38.798Z,100547.75
2023-02-16T13:58:13.538Z,100543.63
2023-02-16T14:00:50.057Z,100545.06
2023-02-16T14:03:21.502Z,100549.56
2023-02-16T14:05:57.316Z,100546.69
2023-02-16T14:08:31.762Z,100541.78
2023-02-16T14:11:08.743Z,100539.97
2023-02-16T14:13:38.221Z,100540.66
2023-02-16T14:16:32.757Z,100541.59
2023-02-16T14:19:23.514Z,100546.53
2023-02-16T14:21:53.455Z,100545.34
2023-02-16T14:24:34.202Z,100548.69
2023-02-16T14:27:13.181Z,100546.78
2023-02-16T14:30:00.811Z,100543.56
2023-02-16T14:32:38.659Z,100545.97
2023-02-16T14:35:35.305Z,100539.28
2023-02-16T14:38:22.592Z,100536.09
2023-02-16T14:40:56.653Z,100534.84
2023-02-16T14:43:41.513Z,100533.94
2023-02-16T14:46:42.505Z,100536.72
2023-02-16T14:49:41.450Z,100530.66
2023-02-16T14:53:00.622Z,100537.59
2023-02-16T14:56:11.712Z,100534.44
2023-02-16T14:59:30.760Z,100535.88
2023-02-16T15:01:59.996Z,100541.09
2023-02-16T15:04:35.261Z,100530.28
2023-02-16T15:07:07.726Z,100533.50
2023-02-16T15:09:36.650Z,100533.97
2023-02-16T15:12:21.768Z,100530.13
2023-02-16T15:15:10.339Z,100531.28
2023-02-16T15:17:48.792Z,100532.94
2023-02-16T15:20:29.480Z,100534.41
2023-02-16T15:23:04.652Z,100526.88
2023-02-16T15:25:40.960Z,100533.09
2023-02-16T15:28:20.206Z,100524.78
2023-02-16T15:30:57.390Z,100529.81
2023-02-16T15:33:32.686Z,100517.25
2023-02-16T15:36:09.029Z,100519.69
2023-02-16T15:39:04.413Z,100532.53
2023-02-16T15:41:40.805Z,100525.28
2023-02-16T15:44:35.937Z,100526.53
2023-02-16T15:47:31.627Z,100514.78
2023-02-16T15:50:14.455Z,100517.06
2023-02-16T15:52:44.021Z,100515.63
2023-02-16T15:55:14.221Z,100519.84
2023-02-16T15:57:43.834Z,100519.94
2023-02-16T16:00:25.174Z,100514.16
2023-02-16T16:03:00.906Z,100511.72
2023-02-16T16:05:42.157Z,100514.34
2023-02-16T16:08:17.497Z,100512.03
2023-02-16T16:10:49.299Z,100510.44
2023-02-16T16:13:29.040Z,100508.47
2023-02-16T16:16:06.984Z,100510.25
2023-02-16T16:18:51.147Z,100512.06
2023-02-16T16:21:36.001Z,100512.78
2023-02-16T16:24:12.048Z,100508.19
2023-02-16T16:27:03.079Z,100508.25
2023-02-16T16:29:48.197Z,100509.16
2023-02-16T16:32:25.128Z,100508.72
2023-02-16T16:34:55.414Z,100505.31
2023-02-16T16:37:34.929Z,100507.97
2023-02-16T16:40:18.273Z,100513.59
2023-02-16T16:43:18.930Z,100514.47
2023-02-16T16:46:23.883Z,100507.75
2023-02-16T16:49:04.510Z,100513.16
2023-02-16T16:51:40.522Z,100507.34
2023-02-16T16:54:35.706Z,100506.56
2023-02-16T16:57:17.683Z,100513.94
2023-02-16T16:59:47.347Z,100512.84
2023-02-16T17:02:17.081Z,100507.75
2023-02-16T17:04:46.696Z,100514.13
2023-02-16T17:07:16.349Z,100512.59
2023-02-16T17:09:46.045Z,100522.06
2023-02-16T17:12:14.645Z,100522.72
2023-02-16T17:14:44.272Z,100520.44
2023-02-16T17:17:14.068Z,100525.13
2023-02-16T17:19:43.684Z,100523.34
2023-02-16T17:22:19.999Z,100527.69
2023-02-16T17:24:49.831Z,100524.47
2023-02-16T17:27:19.994Z,100515.06
2023-02-16T17:29:50.476Z,100513.41
2023-02-16T17:32:18.490Z,100508.13
2023-02-16T17:34:49.175Z,100514.47
2023-02-16T17:37:19.726Z,100504.59
2023-02-16T17:39:50.570Z,100505.53
2023-02-16T17:42:18.441Z,100502.69
2023-02-16T17:44:46.274Z,100491.47
2023-02-16T17:47:18.140Z,100507.03
2023-02-16T17:49:47.783Z,100492.41
2023-02-16T17:52:17.453Z,100497.03
2023-02-16T17:54:47.894Z,100485.31
2023-02-16T17:57:18.904Z,100486.28
2023-02-16T17:59:48.662Z,100487.38
2023-02-16T18:02:18.255Z,100482.06
2023-02-16T18:04:48.751Z,100487.91
2023-02-16T18:07:19.886Z,100494.19
2023-02-16T18:09:50.011Z,100495.03
2023-02-16T18:12:19.897Z,100489.00
2023-02-16T18:14:48.029Z,100494.25
2023-02-16T18:17:18.907Z,100494.25
2023-02-16T18:19:48.552Z,100496.00
2023-02-16T18:22:16.541Z,100484.44
2023-02-16T18:24:44.586Z,100478.50
2023-02-16T18:27:15.133Z,100474.44
2023-02-16T18:29:42.998Z,100479.31
2023-02-16T18:32:14.317Z,100480.13
2023-02-16T18:34:44.094Z,100483.78
2023-02-16T18:37:11.966Z,100482.69
2023-02-16T18:39:41.037Z,100488.00
2023-02-16T18:42:11.404Z,100485.06
2023-02-16T18:44:42.007Z,100486.50
2023-02-16T18:47:12.580Z,100488.06
2023-02-16T18:49:42.369Z,100487.72
2023-02-16T18:52:12.115Z,100485.91
2023-02-16T18:54:41.839Z,100493.59
2023-02-16T18:57:15.237Z,100496.34
2023-02-16T18:59:45.049Z,100489.38
2023-02-16T19:02:15.968Z,100490.22
2023-02-16T19:04:43.839Z,100493.81
2023-02-16T19:07:14.376Z,100492.75
2023-02-16T19:09:43.997Z,100504.50
2023-02-16T19:12:11.835Z,100498.13
2023-02-16T19:14:42.733Z,100500.72
2023-02-16T19:17:12.453Z,100507.94
2023-02-16T19:19:42.102Z,100497.28
2023-02-16T19:22:11.747Z,100497.13
2023-02-16T19:24:43.196Z,100493.44
2023-02-16T19:27:12.997Z,100488.00
2023-02-16T19:29:43.810Z,100493.25
2023-02-16T19:32:13.542Z,100491.66
2023-02-16T19:34:43.173Z,100497.69
2023-02-16T19:37:13.743Z,100490.81
2023-02-16T19:39:44.270Z,100487.50
2023-02-16T19:42:14.025Z,100486.63
2023-02-16T19:44:42.122Z,100488.78
2023-02-16T19:47:12.674Z,100482.13
2023-02-16T19:49:43.240Z,100488.91
2023-02-16T19:52:13.813Z,100486.41
2023-02-16T19:54:44.458Z,100488.91
2023-02-16T19:57:15.339Z,100495.72
2023-02-16T19:59:45.921Z,100488.59
2023-02-16T20:02:15.655Z,100492.81
2023-02-16T20:04:46.224Z,100488.31
2023-02-16T20:07:16.996Z,100483.03
2023-02-16T20:09:44.908Z,100485.72
2023-02-16T20:12:15.649Z,100490.03
2023-02-16T20:14:45.304Z,100494.63
2023-02-16T20:17:13.176Z,100492.81
2023-02-16T20:19:43.721Z,100491.69
2023-02-16T20:22:11.736Z,100494.31
2023-02-16T20:24:43.726Z,100493.38
2023-02-16T20:27:15.030Z,100488.94
2023-02-16T20:29:42.868Z,100476.44
2023-02-16T20:32:14.290Z,100480.03
2023-02-16T20:34:44.129Z,100478.88
2023-02-16T20:37:11.916Z,100484.91
2023-02-16T20:39:42.561Z,100480.59
2023-02-16T20:42:14.173Z,100487.63
2023-02-16T20:44:45.091Z,100479.66
2023-02-16T20:47:13.148Z,100477.09
2023-02-16T20:49:43.748Z,100475.44
2023-02-16T20:52:11.630Z,100479.09
2023-02-16T20:54:42.386Z,100481.44
2023-02-16T20:57:24.956Z,100469.41
2023-02-16T20:59:57.101Z,100473.78
2023-02-16T21:02:27.768Z,100475.50
2023-02-16T21:04:58.308Z,100475.44
2023-02-16T21:07:26.171Z,100472.88
2023-02-16T21:09:54.000Z,100474.66
2023-02-16T21:12:24.690Z,100475.75
2023-02-16T21:14:55.306Z,100472.25
2023-02-16T21:17:26.721Z,100472.50
2023-02-16T21:19:56.653Z,100469.94
2023-02-16T21:22:24.953Z,100471.66
2023-02-16T21:24:53.463Z,100467.28
2023-02-16T21:27:21.258Z,100459.44
2023-02-16T21:29:51.736Z,100457.81
2023-02-16T21:32:23.056Z,100458.53
2023-02-16T21:34:50.915Z,100456.16
2023-02-16T21:37:21.418Z,100460.72
2023-02-16T21:40:07.823Z,100450.09
2023-02-16T21:42:38.399Z,100441.22
2023-02-16T21:45:17.125Z,100457.09
2023-02-16T21:48:05.816Z,100443.97
2023-02-16T21:50:41.166Z,100451.00
2023-02-16T21:53:11.685Z,100446.53
2023-02-16T21:56:00.893Z,100453.75
2023-02-16T21:58:34.592Z,100443.03
2023-02-16T22:01:02.512Z,100444.75
2023-02-16T22:03:33.112Z,100453.66
2023-02-16T22:06:08.480Z,100451.97
2023-02-16T22:08:38.421Z,100448.25
2023-02-16T22:11:13.801Z,100443.09
2023-02-16T22:13:44.788Z,100442.09
2023-02-16T22:16:20.328Z,100443.72
2023-02-16T22:18:56.561Z,100448.84
2023-02-16T22:21:27.957Z,100436.50
2023-02-16T22:24:00.812Z,100453.09
2023-02-16T22:26:35.381Z,100452.13
2023-02-16T22:29:07.518Z,100453.00
2023-02-16T22:31:38.242Z,100452.00
2023-02-16T22:34:15.499Z,100455.59
2023-02-16T22:36:46.058Z,100443.91
2023-02-16T22:39:18.298Z,100438.88
2023-02-16T22:41:51.130Z,100445.91
2023-02-16T22:44:20.837Z,100436.34
2023-02-16T22:46:50.449Z,100435.44
2023-02-16T22:49:20.249Z,100451.34
2023-02-16T22:51:50.287Z,100435.34
2023-02-16T22:54:20.691Z,100431.91
2023-02-16T22:56:50.331Z,100431.84
2023-02-16T22:59:19.958Z,100440.59
2023-02-16T23:01:49.571Z,100409.91
2023-02-16T23:04:19.301Z,100428.25
2023-02-16T23:06:49.077Z,100432.78
2023-02-16T23:09:21.633Z,100440.59
2023-02-16T23:11:51.562Z,100433.53
2023-02-16T23:14:21.266Z,100431.88
2023-02-16T23:16:54.704Z,100430.09
2023-02-16T23:19:27.362Z,100429.22
2023-02-16T23:21:56.947Z,100435.22
2023-02-16T23:24:26.921Z,100430.13
2023-02-16T23:26:57.823Z,100422.28
2023-02-16T23:29:27.907Z,100427.53
2023-02-16T23:31:57.632Z,100425.03
2023-02-16T23:34:27.191Z,100423.22
2023-02-16T23:36:56.843Z,100422.97
2023-02-16T23:39:26.460Z,100426.75
2023-02-16T23:41:56.865Z,100425.19
2023-02-16T23:44:26.484Z,100421.81
2023-02-16T23:46:56.943Z,100423.31
2023-02-16T23:49:26.564Z,100413.91
2023-02-16T23:51:57.034Z,100408.66
2023-02-16T23:54:26.657Z,100421.03
2023-02-16T23:56:59.218Z,100418.44
2023-02-16T23:59:28.848Z,100424.66
